sensor_id;sensor_type;location;lat;lon;timestamp;P1;durP1;ratioP1;P2;durP2;ratioP2
11675;SDS011;5894;42.768;23.404;2023-09-30T00:00:06;9.70;;;4.82;;
11675;SDS011;5894;42.768;23.404;2023-09-30T00:02:38;9.68;;;4.78;;
11675;SDS011;5894;42.768;23.404;2023-09-30T00:05:05;7.55;;;4.68;;
11675;SDS011;5894;42.768;23.404;2023-09-30T00:07:33;6.20;;;4.57;;
11675;SDS011;5894;42.768;23.404;2023-09-30T00:10:03;10.43;;;4.80;;
11675;SDS011;5894;42.768;23.404;2023-09-30T00:12:30;7.80;;;4.80;;
11675;SDS011;5894;42.768;23.404;2023-09-30T00:14:57;8.35;;;5.22;;
11675;SDS011;5894;42.768;23.404;2023-09-30T00:17:24;8.05;;;5.07;;
11675;SDS011;5894;42.768;23.404;2023-09-30T00:19:51;8.38;;;4.65;;
11675;SDS011;5894;42.768;23.404;2023-09-30T00:22:18;6.45;;;4.47;;
11675;SDS011;5894;42.768;23.404;2023-09-30T00:24:45;5.53;;;4.60;;
11675;SDS011;5894;42.768;23.404;2023-09-30T00:27:14;5.13;;;4.28;;
11675;SDS011;5894;42.768;23.404;2023-09-30T00:29:41;7.95;;;4.93;;
11675;SDS011;5894;42.768;23.404;2023-09-30T00:32:08;8.07;;;4.18;;
11675;SDS011;5894;42.768;23.404;2023-09-30T00:34:36;6.13;;;4.47;;
11675;SDS011;5894;42.768;23.404;2023-09-30T00:37:03;7.80;;;5.00;;
11675;SDS011;5894;42.768;23.404;2023-09-30T00:41:59;6.82;;;4.45;;
11675;SDS011;5894;42.768;23.404;2023-09-30T00:44:31;9.32;;;4.63;;
11675;SDS011;5894;42.768;23.404;2023-09-30T00:46:58;7.43;;;4.22;;
11675;SDS011;5894;42.768;23.404;2023-09-30T00:49:26;7.55;;;4.72;;
11675;SDS011;5894;42.768;23.404;2023-09-30T00:51:55;6.80;;;4.38;;
11675;SDS011;5894;42.768;23.404;2023-09-30T00:54:23;10.23;;;4.47;;
11675;SDS011;5894;42.768;23.404;2023-09-30T00:56:51;9.65;;;5.30;;
11675;SDS011;5894;42.768;23.404;2023-09-30T00:59:21;6.38;;;4.80;;
11675;SDS011;5894;42.768;23.404;2023-09-30T01:01:52;10.20;;;4.75;;
11675;SDS011;5894;42.768;23.404;2023-09-30T01:04:23;7.55;;;4.43;;
11675;SDS011;5894;42.768;23.404;2023-09-30T01:06:51;7.88;;;4.70;;
11675;SDS011;5894;42.768;23.404;2023-09-30T01:09:18;6.45;;;5.18;;
11675;SDS011;5894;42.768;23.404;2023-09-30T01:11:46;8.20;;;4.85;;
11675;SDS011;5894;42.768;23.404;2023-09-30T01:14:23;11.25;;;5.05;;
11675;SDS011;5894;42.768;23.404;2023-09-30T01:16:52;7.13;;;4.82;;
11675;SDS011;5894;42.768;23.404;2023-09-30T01:19:20;9.98;;;5.00;;
11675;SDS011;5894;42.768;23.404;2023-09-30T01:21:50;8.40;;;5.28;;
11675;SDS011;5894;42.768;23.404;2023-09-30T01:24:20;14.30;;;5.47;;
11675;SDS011;5894;42.768;23.404;2023-09-30T01:26:47;9.40;;;5.05;;
11675;SDS011;5894;42.768;23.404;2023-09-30T01:29:14;8.82;;;5.70;;
11675;SDS011;5894;42.768;23.404;2023-09-30T01:31:43;10.88;;;5.63;;
11675;SDS011;5894;42.768;23.404;2023-09-30T01:34:13;9.80;;;5.45;;
11675;SDS011;5894;42.768;23.404;2023-09-30T01:36:40;7.43;;;5.80;;
11675;SDS011;5894;42.768;23.404;2023-09-30T01:39:10;9.82;;;5.78;;
11675;SDS011;5894;42.768;23.404;2023-09-30T01:41:37;9.48;;;5.93;;
11675;SDS011;5894;42.768;23.404;2023-09-30T01:44:06;9.93;;;5.15;;
11675;SDS011;5894;42.768;23.404;2023-09-30T01:46:35;8.75;;;5.65;;
11675;SDS011;5894;42.768;23.404;2023-09-30T01:49:03;7.97;;;5.05;;
11675;SDS011;5894;42.768;23.404;2023-09-30T01:51:30;9.10;;;5.47;;
11675;SDS011;5894;42.768;23.404;2023-09-30T01:53:57;7.32;;;5.20;;
11675;SDS011;5894;42.768;23.404;2023-09-30T01:56:26;8.45;;;5.68;;
11675;SDS011;5894;42.768;23.404;2023-09-30T01:58:53;8.38;;;5.35;;
11675;SDS011;5894;42.768;23.404;2023-09-30T02:01:20;8.27;;;5.50;;
11675;SDS011;5894;42.768;23.404;2023-09-30T02:03:47;8.73;;;5.93;;
11675;SDS011;5894;42.768;23.404;2023-09-30T02:06:14;8.48;;;5.65;;
11675;SDS011;5894;42.768;23.404;2023-09-30T02:08:41;8.30;;;5.40;;
11675;SDS011;5894;42.768;23.404;2023-09-30T02:11:11;9.00;;;5.63;;
11675;SDS011;5894;42.768;23.404;2023-09-30T02:13:40;11.05;;;5.38;;
11675;SDS011;5894;42.768;23.404;2023-09-30T02:16:11;10.55;;;6.25;;
11675;SDS011;5894;42.768;23.404;2023-09-30T02:18:39;8.88;;;5.82;;
11675;SDS011;5894;42.768;23.404;2023-09-30T02:21:07;6.72;;;5.35;;
11675;SDS011;5894;42.768;23.404;2023-09-30T02:23:34;8.38;;;5.88;;
11675;SDS011;5894;42.768;23.404;2023-09-30T02:26:01;10.40;;;6.00;;
11675;SDS011;5894;42.768;23.404;2023-09-30T02:28:28;12.00;;;5.88;;
11675;SDS011;5894;42.768;23.404;2023-09-30T02:30:59;9.07;;;5.53;;
11675;SDS011;5894;42.768;23.404;2023-09-30T02:33:26;10.48;;;6.00;;
11675;SDS011;5894;42.768;23.404;2023-09-30T02:35:53;15.07;;;5.82;;
11675;SDS011;5894;42.768;23.404;2023-09-30T02:38:20;9.95;;;6.13;;
11675;SDS011;5894;42.768;23.404;2023-09-30T02:40:48;8.10;;;5.55;;
11675;SDS011;5894;42.768;23.404;2023-09-30T02:43:15;11.73;;;6.78;;
11675;SDS011;5894;42.768;23.404;2023-09-30T02:45:43;6.82;;;5.18;;
11675;SDS011;5894;42.768;23.404;2023-09-30T02:48:12;10.70;;;5.85;;
11675;SDS011;5894;42.768;23.404;2023-09-30T02:50:41;11.25;;;5.70;;
11675;SDS011;5894;42.768;23.404;2023-09-30T02:53:10;8.75;;;5.78;;
11675;SDS011;5894;42.768;23.404;2023-09-30T02:55:37;11.13;;;5.90;;
11675;SDS011;5894;42.768;23.404;2023-09-30T02:58:04;8.50;;;5.75;;
11675;SDS011;5894;42.768;23.404;2023-09-30T03:00:33;7.25;;;5.43;;
11675;SDS011;5894;42.768;23.404;2023-09-30T03:03:01;11.13;;;5.93;;
11675;SDS011;5894;42.768;23.404;2023-09-30T03:05:31;10.10;;;5.65;;
11675;SDS011;5894;42.768;23.404;2023-09-30T03:07:59;8.93;;;6.20;;
11675;SDS011;5894;42.768;23.404;2023-09-30T03:13:50;12.35;;;6.00;;
11675;SDS011;5894;42.768;23.404;2023-09-30T03:16:17;6.10;;;5.50;;
11675;SDS011;5894;42.768;23.404;2023-09-30T03:18:45;8.45;;;5.47;;
11675;SDS011;5894;42.768;23.404;2023-09-30T03:21:14;7.70;;;5.45;;
11675;SDS011;5894;42.768;23.404;2023-09-30T03:23:41;8.15;;;5.45;;
11675;SDS011;5894;42.768;23.404;2023-09-30T03:26:08;7.18;;;5.55;;
11675;SDS011;5894;42.768;23.404;2023-09-30T03:28:36;9.40;;;5.57;;
11675;SDS011;5894;42.768;23.404;2023-09-30T03:31:03;12.38;;;5.95;;
11675;SDS011;5894;42.768;23.404;2023-09-30T03:33:31;10.93;;;5.93;;
11675;SDS011;5894;42.768;23.404;2023-09-30T03:35:58;10.73;;;5.80;;
11675;SDS011;5894;42.768;23.404;2023-09-30T03:38:27;9.63;;;5.95;;
11675;SDS011;5894;42.768;23.404;2023-09-30T03:40:54;12.00;;;5.95;;
11675;SDS011;5894;42.768;23.404;2023-09-30T03:43:23;14.90;;;6.03;;
11675;SDS011;5894;42.768;23.404;2023-09-30T03:45:50;8.38;;;5.43;;
11675;SDS011;5894;42.768;23.404;2023-09-30T03:48:19;10.45;;;5.97;;
11675;SDS011;5894;42.768;23.404;2023-09-30T03:50:46;8.68;;;5.75;;
11675;SDS011;5894;42.768;23.404;2023-09-30T03:53:13;8.57;;;5.85;;
11675;SDS011;5894;42.768;23.404;2023-09-30T03:55:42;9.63;;;5.90;;
11675;SDS011;5894;42.768;23.404;2023-09-30T03:58:09;11.35;;;6.10;;
11675;SDS011;5894;42.768;23.404;2023-09-30T04:00:36;10.32;;;5.70;;
11675;SDS011;5894;42.768;23.404;2023-09-30T04:03:03;10.13;;;5.75;;
11675;SDS011;5894;42.768;23.404;2023-09-30T04:05:30;12.00;;;6.30;;
11675;SDS011;5894;42.768;23.404;2023-09-30T04:07:59;11.52;;;6.20;;
11675;SDS011;5894;42.768;23.404;2023-09-30T04:10:26;11.45;;;5.85;;
11675;SDS011;5894;42.768;23.404;2023-09-30T04:12:56;13.00;;;6.28;;
11675;SDS011;5894;42.768;23.404;2023-09-30T04:15:24;9.35;;;6.25;;
11675;SDS011;5894;42.768;23.404;2023-09-30T04:17:50;10.68;;;6.57;;
11675;SDS011;5894;42.768;23.404;2023-09-30T04:20:18;9.57;;;6.65;;
11675;SDS011;5894;42.768;23.404;2023-09-30T04:22:52;12.23;;;6.43;;
11675;SDS011;5894;42.768;23.404;2023-09-30T04:25:22;9.82;;;6.18;;
11675;SDS011;5894;42.768;23.404;2023-09-30T04:27:50;9.65;;;6.40;;
11675;SDS011;5894;42.768;23.404;2023-09-30T04:30:19;10.93;;;6.28;;
11675;SDS011;5894;42.768;23.404;2023-09-30T04:32:47;9.57;;;6.40;;
11675;SDS011;5894;42.768;23.404;2023-09-30T04:35:14;10.85;;;6.47;;
11675;SDS011;5894;42.768;23.404;2023-09-30T04:37:41;11.75;;;6.28;;
11675;SDS011;5894;42.768;23.404;2023-09-30T04:40:09;11.50;;;6.18;;
11675;SDS011;5894;42.768;23.404;2023-09-30T04:42:41;10.80;;;6.57;;
11675;SDS011;5894;42.768;23.404;2023-09-30T04:45:10;12.57;;;6.50;;
11675;SDS011;5894;42.768;23.404;2023-09-30T04:47:39;10.52;;;6.45;;
11675;SDS011;5894;42.768;23.404;2023-09-30T04:50:27;9.18;;;6.90;;
11675;SDS011;5894;42.768;23.404;2023-09-30T04:52:55;9.45;;;6.38;;
11675;SDS011;5894;42.768;23.404;2023-09-30T04:55:23;10.25;;;6.30;;
11675;SDS011;5894;42.768;23.404;2023-09-30T04:57:51;10.90;;;6.00;;
11675;SDS011;5894;42.768;23.404;2023-09-30T05:00:19;11.52;;;6.10;;
11675;SDS011;5894;42.768;23.404;2023-09-30T05:02:51;11.80;;;6.20;;
11675;SDS011;5894;42.768;23.404;2023-09-30T05:05:19;11.98;;;5.93;;
11675;SDS011;5894;42.768;23.404;2023-09-30T05:07:46;10.15;;;6.05;;
11675;SDS011;5894;42.768;23.404;2023-09-30T05:10:13;9.45;;;6.60;;
11675;SDS011;5894;42.768;23.404;2023-09-30T05:12:42;9.13;;;6.20;;
11675;SDS011;5894;42.768;23.404;2023-09-30T05:15:11;13.50;;;6.88;;
11675;SDS011;5894;42.768;23.404;2023-09-30T05:17:40;12.93;;;6.75;;
11675;SDS011;5894;42.768;23.404;2023-09-30T05:20:10;14.60;;;6.68;;
11675;SDS011;5894;42.768;23.404;2023-09-30T05:22:38;9.07;;;6.50;;
11675;SDS011;5894;42.768;23.404;2023-09-30T05:25:06;22.60;;;7.50;;
11675;SDS011;5894;42.768;23.404;2023-09-30T05:27:34;18.20;;;6.90;;
11675;SDS011;5894;42.768;23.404;2023-09-30T05:30:01;18.27;;;7.72;;
11675;SDS011;5894;42.768;23.404;2023-09-30T05:32:29;14.27;;;6.90;;
11675;SDS011;5894;42.768;23.404;2023-09-30T05:34:56;13.73;;;7.22;;
11675;SDS011;5894;42.768;23.404;2023-09-30T05:37:25;15.68;;;6.47;;
11675;SDS011;5894;42.768;23.404;2023-09-30T05:39:53;13.52;;;5.88;;
11675;SDS011;5894;42.768;23.404;2023-09-30T05:42:20;12.93;;;6.80;;
11675;SDS011;5894;42.768;23.404;2023-09-30T05:44:47;12.32;;;6.40;;
11675;SDS011;5894;42.768;23.404;2023-09-30T05:47:14;10.00;;;6.45;;
11675;SDS011;5894;42.768;23.404;2023-09-30T05:49:41;14.50;;;6.82;;
11675;SDS011;5894;42.768;23.404;2023-09-30T05:52:09;11.70;;;6.60;;
11675;SDS011;5894;42.768;23.404;2023-09-30T05:54:37;13.73;;;7.38;;
11675;SDS011;5894;42.768;23.404;2023-09-30T05:57:04;12.77;;;7.10;;
11675;SDS011;5894;42.768;23.404;2023-09-30T05:59:35;10.10;;;6.63;;
11675;SDS011;5894;42.768;23.404;2023-09-30T06:02:03;12.00;;;7.10;;
11675;SDS011;5894;42.768;23.404;2023-09-30T06:04:30;9.93;;;7.47;;
11675;SDS011;5894;42.768;23.404;2023-09-30T06:06:59;10.98;;;6.97;;
11675;SDS011;5894;42.768;23.404;2023-09-30T06:09:26;12.70;;;6.80;;
11675;SDS011;5894;42.768;23.404;2023-09-30T06:11:57;11.77;;;6.75;;
11675;SDS011;5894;42.768;23.404;2023-09-30T06:14:25;11.75;;;6.68;;
11675;SDS011;5894;42.768;23.404;2023-09-30T06:16:53;13.40;;;7.20;;
11675;SDS011;5894;42.768;23.404;2023-09-30T06:19:20;13.40;;;6.60;;
11675;SDS011;5894;42.768;23.404;2023-09-30T06:21:48;10.98;;;7.13;;
11675;SDS011;5894;42.768;23.404;2023-09-30T06:24:16;11.18;;;6.82;;
11675;SDS011;5894;42.768;23.404;2023-09-30T06:26:45;11.95;;;7.00;;
11675;SDS011;5894;42.768;23.404;2023-09-30T06:29:15;9.82;;;6.38;;
11675;SDS011;5894;42.768;23.404;2023-09-30T06:31:42;8.48;;;6.18;;
11675;SDS011;5894;42.768;23.404;2023-09-30T06:34:09;12.63;;;7.28;;
11675;SDS011;5894;42.768;23.404;2023-09-30T06:36:36;10.38;;;6.57;;
11675;SDS011;5894;42.768;23.404;2023-09-30T06:39:03;13.30;;;6.97;;
11675;SDS011;5894;42.768;23.404;2023-09-30T06:41:31;8.88;;;6.38;;
11675;SDS011;5894;42.768;23.404;2023-09-30T06:43:59;10.82;;;6.32;;
11675;SDS011;5894;42.768;23.404;2023-09-30T06:46:28;14.70;;;6.43;;
11675;SDS011;5894;42.768;23.404;2023-09-30T06:48:55;10.05;;;6.90;;
11675;SDS011;5894;42.768;23.404;2023-09-30T06:51:22;8.65;;;5.97;;
11675;SDS011;5894;42.768;23.404;2023-09-30T06:53:49;10.63;;;6.47;;
11675;SDS011;5894;42.768;23.404;2023-09-30T06:56:17;11.38;;;6.70;;
11675;SDS011;5894;42.768;23.404;2023-09-30T06:58:44;8.02;;;6.15;;
11675;SDS011;5894;42.768;23.404;2023-09-30T07:01:14;12.60;;;6.53;;
11675;SDS011;5894;42.768;23.404;2023-09-30T07:03:43;11.52;;;6.10;;
11675;SDS011;5894;42.768;23.404;2023-09-30T07:06:10;11.25;;;6.40;;
11675;SDS011;5894;42.768;23.404;2023-09-30T07:08:37;8.52;;;6.05;;
11675;SDS011;5894;42.768;23.404;2023-09-30T07:11:04;11.27;;;6.30;;
11675;SDS011;5894;42.768;23.404;2023-09-30T07:13:33;12.75;;;6.50;;
11675;SDS011;5894;42.768;23.404;2023-09-30T07:16:01;7.30;;;5.70;;
11675;SDS011;5894;42.768;23.404;2023-09-30T07:18:27;9.98;;;5.20;;
11675;SDS011;5894;42.768;23.404;2023-09-30T07:20:56;10.23;;;5.72;;
11675;SDS011;5894;42.768;23.404;2023-09-30T07:23:23;9.80;;;5.30;;
11675;SDS011;5894;42.768;23.404;2023-09-30T07:25:50;10.70;;;5.10;;
11675;SDS011;5894;42.768;23.404;2023-09-30T07:28:17;10.13;;;4.78;;
11675;SDS011;5894;42.768;23.404;2023-09-30T07:30:44;6.15;;;4.95;;
11675;SDS011;5894;42.768;23.404;2023-09-30T07:33:11;10.93;;;4.82;;
11675;SDS011;5894;42.768;23.404;2023-09-30T07:35:38;9.73;;;4.70;;
11675;SDS011;5894;42.768;23.404;2023-09-30T07:38:07;11.15;;;4.50;;
11675;SDS011;5894;42.768;23.404;2023-09-30T07:40:34;10.13;;;5.00;;
11675;SDS011;5894;42.768;23.404;2023-09-30T07:43:01;10.32;;;5.10;;
11675;SDS011;5894;42.768;23.404;2023-09-30T07:45:29;9.63;;;4.80;;
11675;SDS011;5894;42.768;23.404;2023-09-30T07:47:56;8.60;;;4.80;;
11675;SDS011;5894;42.768;23.404;2023-09-30T07:50:24;10.75;;;4.90;;
11675;SDS011;5894;42.768;23.404;2023-09-30T07:52:51;7.50;;;4.82;;
11675;SDS011;5894;42.768;23.404;2023-09-30T07:55:19;8.77;;;4.40;;
11675;SDS011;5894;42.768;23.404;2023-09-30T07:57:46;5.45;;;4.47;;
11675;SDS011;5894;42.768;23.404;2023-09-30T08:00:14;10.38;;;5.45;;
11675;SDS011;5894;42.768;23.404;2023-09-30T08:02:42;10.35;;;4.63;;
11675;SDS011;5894;42.768;23.404;2023-09-30T08:05:10;8.32;;;4.70;;
11675;SDS011;5894;42.768;23.404;2023-09-30T08:07:37;5.97;;;4.20;;
11675;SDS011;5894;42.768;23.404;2023-09-30T08:10:04;11.98;;;4.60;;
11675;SDS011;5894;42.768;23.404;2023-09-30T08:12:39;10.70;;;4.75;;
11675;SDS011;5894;42.768;23.404;2023-09-30T08:15:05;16.40;;;4.82;;
11675;SDS011;5894;42.768;23.404;2023-09-30T08:17:37;9.02;;;5.00;;
11675;SDS011;5894;42.768;23.404;2023-09-30T08:20:04;9.68;;;4.57;;
11675;SDS011;5894;42.768;23.404;2023-09-30T08:22:35;9.90;;;4.82;;
11675;SDS011;5894;42.768;23.404;2023-09-30T08:25:02;12.35;;;4.93;;
11675;SDS011;5894;42.768;23.404;2023-09-30T08:27:31;8.48;;;4.85;;
11675;SDS011;5894;42.768;23.404;2023-09-30T08:29:59;8.85;;;4.75;;
11675;SDS011;5894;42.768;23.404;2023-09-30T08:32:31;10.05;;;4.82;;
11675;SDS011;5894;42.768;23.404;2023-09-30T08:34:59;8.88;;;4.40;;
11675;SDS011;5894;42.768;23.404;2023-09-30T08:37:26;11.18;;;4.35;;
11675;SDS011;5894;42.768;23.404;2023-09-30T08:39:53;5.03;;;3.92;;
11675;SDS011;5894;42.768;23.404;2023-09-30T08:42:20;8.13;;;4.80;;
11675;SDS011;5894;42.768;23.404;2023-09-30T08:44:49;7.85;;;4.35;;
11675;SDS011;5894;42.768;23.404;2023-09-30T08:47:21;12.13;;;4.18;;
11675;SDS011;5894;42.768;23.404;2023-09-30T08:49:51;6.10;;;4.40;;
11675;SDS011;5894;42.768;23.404;2023-09-30T08:52:23;9.57;;;4.30;;
11675;SDS011;5894;42.768;23.404;2023-09-30T08:54:51;6.95;;;4.13;;
11675;SDS011;5894;42.768;23.404;2023-09-30T08:57:18;13.65;;;4.70;;
11675;SDS011;5894;42.768;23.404;2023-09-30T08:59:46;9.63;;;5.10;;
11675;SDS011;5894;42.768;23.404;2023-09-30T09:02:15;11.00;;;4.65;;
11675;SDS011;5894;42.768;23.404;2023-09-30T09:04:44;11.32;;;4.93;;
11675;SDS011;5894;42.768;23.404;2023-09-30T09:07:12;8.55;;;4.57;;
11675;SDS011;5894;42.768;23.404;2023-09-30T09:09:39;11.25;;;5.22;;
11675;SDS011;5894;42.768;23.404;2023-09-30T09:12:06;13.30;;;5.00;;
11675;SDS011;5894;42.768;23.404;2023-09-30T09:14:45;9.63;;;4.70;;
11675;SDS011;5894;42.768;23.404;2023-09-30T09:17:12;9.50;;;4.90;;
11675;SDS011;5894;42.768;23.404;2023-09-30T09:19:41;4.85;;;4.22;;
11675;SDS011;5894;42.768;23.404;2023-09-30T09:22:10;4.68;;;4.13;;
11675;SDS011;5894;42.768;23.404;2023-09-30T09:24:37;11.55;;;4.47;;
11675;SDS011;5894;42.768;23.404;2023-09-30T09:27:05;6.78;;;4.57;;
11675;SDS011;5894;42.768;23.404;2023-09-30T09:29:33;9.23;;;4.70;;
11675;SDS011;5894;42.768;23.404;2023-09-30T09:32:07;5.38;;;4.55;;
11675;SDS011;5894;42.768;23.404;2023-09-30T09:34:37;6.28;;;4.28;;
11675;SDS011;5894;42.768;23.404;2023-09-30T09:37:16;16.58;;;4.28;;
11675;SDS011;5894;42.768;23.404;2023-09-30T09:39:50;9.38;;;4.45;;
11675;SDS011;5894;42.768;23.404;2023-09-30T09:42:24;7.45;;;3.90;;
11675;SDS011;5894;42.768;23.404;2023-09-30T09:44:53;6.35;;;3.63;;
11675;SDS011;5894;42.768;23.404;2023-09-30T09:47:22;8.73;;;3.63;;
11675;SDS011;5894;42.768;23.404;2023-09-30T09:49:49;8.00;;;3.53;;
11675;SDS011;5894;42.768;23.404;2023-09-30T09:52:19;8.20;;;3.47;;
11675;SDS011;5894;42.768;23.404;2023-09-30T09:54:47;7.00;;;3.58;;
11675;SDS011;5894;42.768;23.404;2023-09-30T09:57:16;6.75;;;3.50;;
11675;SDS011;5894;42.768;23.404;2023-09-30T09:59:44;6.93;;;3.55;;
11675;SDS011;5894;42.768;23.404;2023-09-30T10:02:13;8.02;;;3.42;;
11675;SDS011;5894;42.768;23.404;2023-09-30T10:04:42;6.38;;;3.53;;
11675;SDS011;5894;42.768;23.404;2023-09-30T10:07:11;7.72;;;4.13;;
11675;SDS011;5894;42.768;23.404;2023-09-30T10:09:45;7.25;;;3.35;;
11675;SDS011;5894;42.768;23.404;2023-09-30T10:12:14;10.73;;;4.72;;
11675;SDS011;5894;42.768;23.404;2023-09-30T10:14:42;7.32;;;3.65;;
11675;SDS011;5894;42.768;23.404;2023-09-30T10:17:09;9.30;;;3.60;;
11675;SDS011;5894;42.768;23.404;2023-09-30T10:19:37;7.03;;;3.30;;
11675;SDS011;5894;42.768;23.404;2023-09-30T10:22:31;4.93;;;3.38;;
11675;SDS011;5894;42.768;23.404;2023-09-30T10:25:00;6.65;;;3.83;;
11675;SDS011;5894;42.768;23.404;2023-09-30T10:27:48;5.03;;;3.50;;
11675;SDS011;5894;42.768;23.404;2023-09-30T10:30:15;6.13;;;3.55;;
11675;SDS011;5894;42.768;23.404;2023-09-30T10:35:42;6.53;;;3.38;;
11675;SDS011;5894;42.768;23.404;2023-09-30T10:41:07;8.23;;;3.80;;
11675;SDS011;5894;42.768;23.404;2023-09-30T10:43:35;6.25;;;3.50;;
11675;SDS011;5894;42.768;23.404;2023-09-30T10:46:04;3.35;;;3.05;;
11675;SDS011;5894;42.768;23.404;2023-09-30T10:48:34;6.35;;;3.40;;
11675;SDS011;5894;42.768;23.404;2023-09-30T10:51:09;4.28;;;3.20;;
11675;SDS011;5894;42.768;23.404;2023-09-30T10:53:44;9.07;;;3.60;;
11675;SDS011;5894;42.768;23.404;2023-09-30T10:56:14;7.82;;;3.95;;
11675;SDS011;5894;42.768;23.404;2023-09-30T10:58:42;10.40;;;3.30;;
11675;SDS011;5894;42.768;23.404;2023-09-30T11:01:10;7.78;;;3.65;;
11675;SDS011;5894;42.768;23.404;2023-09-30T11:03:38;7.65;;;4.00;;
11675;SDS011;5894;42.768;23.404;2023-09-30T11:06:07;7.80;;;3.72;;
11675;SDS011;5894;42.768;23.404;2023-09-30T11:08:35;9.88;;;3.83;;
11675;SDS011;5894;42.768;23.404;2023-09-30T11:11:03;8.80;;;3.97;;
11675;SDS011;5894;42.768;23.404;2023-09-30T11:13:34;10.38;;;3.90;;
11675;SDS011;5894;42.768;23.404;2023-09-30T11:16:04;11.05;;;4.30;;
11675;SDS011;5894;42.768;23.404;2023-09-30T11:18:31;10.38;;;3.92;;
11675;SDS011;5894;42.768;23.404;2023-09-30T11:21:08;8.70;;;3.70;;
11675;SDS011;5894;42.768;23.404;2023-09-30T11:23:38;4.68;;;3.50;;
11675;SDS011;5894;42.768;23.404;2023-09-30T11:26:07;7.20;;;3.60;;
11675;SDS011;5894;42.768;23.404;2023-09-30T11:28:36;9.55;;;3.78;;
11675;SDS011;5894;42.768;23.404;2023-09-30T11:31:07;5.15;;;3.28;;
11675;SDS011;5894;42.768;23.404;2023-09-30T11:33:48;9.70;;;3.60;;
11675;SDS011;5894;42.768;23.404;2023-09-30T11:36:17;8.57;;;3.72;;
11675;SDS011;5894;42.768;23.404;2023-09-30T11:38:45;8.50;;;3.72;;
11675;SDS011;5894;42.768;23.404;2023-09-30T11:41:13;9.13;;;3.83;;
11675;SDS011;5894;42.768;23.404;2023-09-30T11:43:57;9.25;;;3.58;;
11675;SDS011;5894;42.768;23.404;2023-09-30T11:46:25;6.07;;;4.00;;
11675;SDS011;5894;42.768;23.404;2023-09-30T11:48:57;6.05;;;3.75;;
11675;SDS011;5894;42.768;23.404;2023-09-30T11:51:25;6.20;;;3.63;;
11675;SDS011;5894;42.768;23.404;2023-09-30T11:53:52;8.18;;;4.10;;
11675;SDS011;5894;42.768;23.404;2023-09-30T11:56:20;8.38;;;3.90;;
11675;SDS011;5894;42.768;23.404;2023-09-30T11:58:49;9.45;;;3.70;;
11675;SDS011;5894;42.768;23.404;2023-09-30T12:01:16;8.80;;;4.00;;
11675;SDS011;5894;42.768;23.404;2023-09-30T12:03:43;9.88;;;3.83;;
11675;SDS011;5894;42.768;23.404;2023-09-30T12:06:12;8.73;;;4.40;;
11675;SDS011;5894;42.768;23.404;2023-09-30T12:08:41;10.07;;;4.00;;
11675;SDS011;5894;42.768;23.404;2023-09-30T12:11:08;5.35;;;3.95;;
11675;SDS011;5894;42.768;23.404;2023-09-30T12:13:38;9.80;;;4.00;;
11675;SDS011;5894;42.768;23.404;2023-09-30T12:16:06;7.40;;;3.83;;
11675;SDS011;5894;42.768;23.404;2023-09-30T12:18:34;5.50;;;3.85;;
11675;SDS011;5894;42.768;23.404;2023-09-30T12:21:01;8.23;;;4.10;;
11675;SDS011;5894;42.768;23.404;2023-09-30T12:23:29;12.07;;;4.53;;
11675;SDS011;5894;42.768;23.404;2023-09-30T12:25:56;5.15;;;4.13;;
11675;SDS011;5894;42.768;23.404;2023-09-30T12:28:23;7.60;;;4.38;;
11675;SDS011;5894;42.768;23.404;2023-09-30T12:30:52;5.82;;;4.07;;
11675;SDS011;5894;42.768;23.404;2023-09-30T12:33:20;9.95;;;3.90;;
11675;SDS011;5894;42.768;23.404;2023-09-30T12:35:47;11.10;;;3.95;;
11675;SDS011;5894;42.768;23.404;2023-09-30T12:38:14;7.20;;;4.20;;
11675;SDS011;5894;42.768;23.404;2023-09-30T12:40:41;7.57;;;4.30;;
11675;SDS011;5894;42.768;23.404;2023-09-30T12:43:09;6.60;;;4.20;;
11675;SDS011;5894;42.768;23.404;2023-09-30T12:45:36;6.90;;;4.28;;
11675;SDS011;5894;42.768;23.404;2023-09-30T12:48:04;9.63;;;4.03;;
11675;SDS011;5894;42.768;23.404;2023-09-30T12:50:33;8.45;;;4.22;;
11675;SDS011;5894;42.768;23.404;2023-09-30T12:52:59;9.63;;;4.25;;
11675;SDS011;5894;42.768;23.404;2023-09-30T12:55:26;24.85;;;4.55;;
11675;SDS011;5894;42.768;23.404;2023-09-30T12:57:53;6.95;;;4.50;;
11675;SDS011;5894;42.768;23.404;2023-09-30T13:00:20;7.90;;;4.32;;
11675;SDS011;5894;42.768;23.404;2023-09-30T13:02:48;5.07;;;3.95;;
11675;SDS011;5894;42.768;23.404;2023-09-30T13:05:15;7.80;;;4.50;;
11675;SDS011;5894;42.768;23.404;2023-09-30T13:07:44;10.63;;;4.43;;
11675;SDS011;5894;42.768;23.404;2023-09-30T13:10:11;10.27;;;4.50;;
11675;SDS011;5894;42.768;23.404;2023-09-30T13:12:38;14.18;;;4.22;;
11675;SDS011;5894;42.768;23.404;2023-09-30T13:15:06;6.70;;;4.07;;
11675;SDS011;5894;42.768;23.404;2023-09-30T13:17:34;7.85;;;4.00;;
11675;SDS011;5894;42.768;23.404;2023-09-30T13:20:00;7.60;;;4.10;;
11675;SDS011;5894;42.768;23.404;2023-09-30T13:22:30;10.18;;;4.40;;
11675;SDS011;5894;42.768;23.404;2023-09-30T13:24:58;11.43;;;3.80;;
11675;SDS011;5894;42.768;23.404;2023-09-30T13:27:27;6.25;;;3.53;;
11675;SDS011;5894;42.768;23.404;2023-09-30T13:29:54;8.95;;;3.65;;
11675;SDS011;5894;42.768;23.404;2023-09-30T13:32:26;6.03;;;3.67;;
11675;SDS011;5894;42.768;23.404;2023-09-30T13:34:53;10.65;;;4.10;;
11675;SDS011;5894;42.768;23.404;2023-09-30T13:37:21;7.25;;;4.13;;
11675;SDS011;5894;42.768;23.404;2023-09-30T13:39:48;6.15;;;3.90;;
11675;SDS011;5894;42.768;23.404;2023-09-30T13:42:17;9.38;;;3.95;;
11675;SDS011;5894;42.768;23.404;2023-09-30T13:44:44;7.90;;;3.85;;
11675;SDS011;5894;42.768;23.404;2023-09-30T13:47:11;7.70;;;3.95;;
11675;SDS011;5894;42.768;23.404;2023-09-30T13:49:38;6.78;;;3.92;;
11675;SDS011;5894;42.768;23.404;2023-09-30T13:52:05;11.77;;;4.00;;
11675;SDS011;5894;42.768;23.404;2023-09-30T13:54:33;10.93;;;4.57;;
11675;SDS011;5894;42.768;23.404;2023-09-30T13:57:00;8.60;;;3.70;;
11675;SDS011;5894;42.768;23.404;2023-09-30T13:59:28;10.15;;;4.57;;
11675;SDS011;5894;42.768;23.404;2023-09-30T14:01:58;10.02;;;3.97;;
11675;SDS011;5894;42.768;23.404;2023-09-30T14:04:25;7.82;;;4.15;;
11675;SDS011;5894;42.768;23.404;2023-09-30T14:06:52;7.97;;;3.72;;
11675;SDS011;5894;42.768;23.404;2023-09-30T14:09:19;9.73;;;3.92;;
11675;SDS011;5894;42.768;23.404;2023-09-30T14:11:46;7.80;;;3.97;;
11675;SDS011;5894;42.768;23.404;2023-09-30T14:14:13;8.68;;;4.45;;
11675;SDS011;5894;42.768;23.404;2023-09-30T14:16:42;8.65;;;3.85;;
11675;SDS011;5894;42.768;23.404;2023-09-30T14:19:09;6.55;;;3.83;;
11675;SDS011;5894;42.768;23.404;2023-09-30T14:21:38;8.45;;;3.92;;
11675;SDS011;5894;42.768;23.404;2023-09-30T14:24:06;6.43;;;3.92;;
11675;SDS011;5894;42.768;23.404;2023-09-30T14:26:33;7.80;;;3.85;;
11675;SDS011;5894;42.768;23.404;2023-09-30T14:29:01;9.30;;;3.95;;
11675;SDS011;5894;42.768;23.404;2023-09-30T14:31:28;7.85;;;3.80;;
11675;SDS011;5894;42.768;23.404;2023-09-30T14:33:59;7.90;;;4.10;;
11675;SDS011;5894;42.768;23.404;2023-09-30T14:36:26;8.40;;;3.95;;
11675;SDS011;5894;42.768;23.404;2023-09-30T14:38:53;7.30;;;3.95;;
11675;SDS011;5894;42.768;23.404;2023-09-30T14:41:20;10.32;;;4.20;;
11675;SDS011;5894;42.768;23.404;2023-09-30T14:43:47;9.77;;;4.03;;
11675;SDS011;5894;42.768;23.404;2023-09-30T14:46:14;9.23;;;3.45;;
11675;SDS011;5894;42.768;23.404;2023-09-30T14:48:41;8.63;;;3.70;;
11675;SDS011;5894;42.768;23.404;2023-09-30T14:51:10;6.75;;;3.95;;
11675;SDS011;5894;42.768;23.404;2023-09-30T14:53:37;5.78;;;3.58;;
11675;SDS011;5894;42.768;23.404;2023-09-30T14:56:14;4.75;;;3.60;;
11675;SDS011;5894;42.768;23.404;2023-09-30T14:58:41;8.10;;;3.60;;
11675;SDS011;5894;42.768;23.404;2023-09-30T15:01:08;7.82;;;4.13;;